createdAt,value
2018-05-13T00:00:32.441Z,59.10
2018-05-13T00:02:59.901Z,59.00
2018-05-13T00:05:27.578Z,58.90
2018-05-13T00:07:55.713Z,58.90
2018-05-13T00:10:23.185Z,58.90
2018-05-13T00:12:50.753Z,59.00
2018-05-13T00:15:18.238Z,59.30
2018-05-13T00:17:45.774Z,59.60
2018-05-13T00:20:13.245Z,59.60
2018-05-13T00:22:40.703Z,59.60
2018-05-13T00:25:08.238Z,59.60
2018-05-13T00:27:35.873Z,59.90
2018-05-13T00:30:03.462Z,59.90
2018-05-13T00:32:31.221Z,59.90
2018-05-13T00:34:58.869Z,59.90
2018-05-13T00:37:26.440Z,59.80
2018-05-13T00:39:53.925Z,60.00
2018-05-13T00:42:21.601Z,60.20
2018-05-13T00:44:49.122Z,60.60
2018-05-13T00:47:16.790Z,60.80
2018-05-13T00:49:44.332Z,61.00
2018-05-13T00:52:11.801Z,61.20
2018-05-13T00:54:51.112Z,61.50
2018-05-13T00:57:18.593Z,61.70
2018-05-13T00:59:46.157Z,61.60
2018-05-13T01:02:13.830Z,61.80
2018-05-13T01:04:41.369Z,61.90
2018-05-13T01:07:09.141Z,62.20
2018-05-13T01:09:36.889Z,62.30
2018-05-13T01:12:04.646Z,62.40
2018-05-13T01:14:32.293Z,62.50
2018-05-13T01:16:59.828Z,62.70
2018-05-13T01:19:27.337Z,62.80
2018-05-13T01:21:55.102Z,63.00
2018-05-13T01:24:22.869Z,63.10
2018-05-13T01:26:50.637Z,63.10
2018-05-13T01:29:18.393Z,63.20
2018-05-13T01:31:45.981Z,63.20
2018-05-13T01:34:14.229Z,63.20
2018-05-13T01:36:41.874Z,63.20
2018-05-13T01:39:09.454Z,63.30
2018-05-13T01:41:36.934Z,63.40
2018-05-13T01:44:04.670Z,63.50
2018-05-13T01:46:32.446Z,63.80
2018-05-13T01:49:00.202Z,63.80
2018-05-13T01:51:27.833Z,64.00
2018-05-13T01:53:55.417Z,64.10
2018-05-13T01:56:23.058Z,64.20
2018-05-13T01:58:50.632Z,64.20
2018-05-13T02:01:18.252Z,64.10
2018-05-13T02:03:45.729Z,64.20
2018-05-13T02:06:13.192Z,64.30
2018-05-13T02:08:40.661Z,64.30
2018-05-13T02:11:09.452Z,64.60
2018-05-13T02:13:37.101Z,64.50
2018-05-13T02:16:04.588Z,64.70
2018-05-13T02:18:32.964Z,64.70
2018-05-13T02:21:00.416Z,64.70
2018-05-13T02:23:27.881Z,64.90
2018-05-13T02:25:55.416Z,65.00
2018-05-13T02:28:23.190Z,65.00
2018-05-13T02:30:50.879Z,65.00
2018-05-13T02:33:18.320Z,65.00
2018-05-13T02:35:45.857Z,64.80
2018-05-13T02:38:13.330Z,64.90
2018-05-13T02:40:40.792Z,65.00
2018-05-13T02:43:08.385Z,65.00
2018-05-13T02:45:35.884Z,65.00
2018-05-13T02:48:03.455Z,65.00
2018-05-13T02:50:31.217Z,65.00
2018-05-13T02:52:58.671Z,65.10
2018-05-13T02:55:26.438Z,65.30
2018-05-13T02:57:54.200Z,65.30
2018-05-13T03:00:21.672Z,65.40
2018-05-13T03:02:49.342Z,66.20
2018-05-13T03:05:16.810Z,65.70
2018-05-13T03:07:44.280Z,65.80
2018-05-13T03:10:11.741Z,66.00
2018-05-13T03:12:39.208Z,66.10
2018-05-13T03:15:06.714Z,66.30
2018-05-13T03:17:34.190Z,66.20
2018-05-13T03:20:01.836Z,66.20
2018-05-13T03:22:30.226Z,66.00
2018-05-13T03:24:57.764Z,66.00
2018-05-13T03:27:25.524Z,66.00
2018-05-13T03:29:52.987Z,66.00
2018-05-13T03:32:20.464Z,66.00
2018-05-13T03:34:48.117Z,66.00
2018-05-13T03:37:15.579Z,66.20
2018-05-13T03:39:43.117Z,66.30
2018-05-13T03:42:10.882Z,66.40
2018-05-13T03:44:38.517Z,66.50
2018-05-13T03:47:06.094Z,66.50
2018-05-13T03:49:33.867Z,66.50
2018-05-13T03:52:01.324Z,66.40
2018-05-13T03:54:29.076Z,66.40
2018-05-13T03:56:56.537Z,66.30
2018-05-13T03:59:24.015Z,66.50
2018-05-13T04:01:51.637Z,66.40
2018-05-13T04:04:19.221Z,66.40
2018-05-13T04:06:46.985Z,66.60
2018-05-13T04:09:26.138Z,66.60
2018-05-13T04:12:05.465Z,66.70
2018-05-13T04:14:55.442Z,66.80
2018-05-13T04:17:24.002Z,66.70
2018-05-13T04:19:51.489Z,66.50
2018-05-13T04:22:19.038Z,66.40
2018-05-13T04:24:46.734Z,66.20
2018-05-13T04:27:14.249Z,66.30
2018-05-13T04:29:41.715Z,66.30
2018-05-13T04:32:09.177Z,66.40
2018-05-13T04:34:36.851Z,66.50
2018-05-13T04:37:04.385Z,66.60
2018-05-13T04:39:32.026Z,66.60
2018-05-13T04:41:59.502Z,66.80
2018-05-13T04:44:26.953Z,66.90
2018-05-13T04:46:54.437Z,66.80
2018-05-13T04:49:21.888Z,66.70
2018-05-13T04:51:49.438Z,66.60
2018-05-13T04:54:16.904Z,66.70
2018-05-13T04:56:44.531Z,66.80
2018-05-13T04:59:12.015Z,66.70
2018-05-13T05:01:40.480Z,66.50
2018-05-13T05:04:08.254Z,66.40
2018-05-13T05:06:36.008Z,66.40
2018-05-13T05:09:03.515Z,66.50
2018-05-13T05:11:31.228Z,66.40
2018-05-13T05:13:58.992Z,66.10
2018-05-13T05:16:26.761Z,66.00
2018-05-13T05:18:54.413Z,66.00
2018-05-13T05:21:21.990Z,66.00
2018-05-13T05:23:49.745Z,66.30
2018-05-13T05:26:17.387Z,66.40
2018-05-13T05:28:44.845Z,66.60
2018-05-13T05:31:12.336Z,66.50
2018-05-13T05:33:39.810Z,66.40
2018-05-13T05:36:07.534Z,66.40
2018-05-13T05:38:35.105Z,66.20
2018-05-13T05:41:02.861Z,66.20
2018-05-13T05:43:30.633Z,66.00
2018-05-13T05:45:58.221Z,65.80
2018-05-13T05:48:26.471Z,65.60
2018-05-13T05:50:53.932Z,65.60
2018-05-13T05:53:21.694Z,65.50
2018-05-13T05:55:49.457Z,65.60
2018-05-13T05:58:17.139Z,65.80
2018-05-13T06:00:44.664Z,65.90
2018-05-13T06:03:12.342Z,66.00
2018-05-13T06:05:39.902Z,66.10
2018-05-13T06:08:07.444Z,66.00
2018-05-13T06:10:34.988Z,66.10
2018-05-13T06:13:02.501Z,66.10
2018-05-13T06:15:29.970Z,66.00
2018-05-13T06:17:57.429Z,65.60
2018-05-13T06:20:24.898Z,65.60
2018-05-13T06:22:52.369Z,65.30
2018-05-13T06:25:19.914Z,65.20
2018-05-13T06:27:47.617Z,65.10
2018-05-13T06:30:15.768Z,64.80
2018-05-13T06:32:43.325Z,64.60
2018-05-13T06:35:10.801Z,64.40
2018-05-13T06:37:38.266Z,64.10
2018-05-13T06:40:05.769Z,63.90
2018-05-13T06:42:33.226Z,63.60
2018-05-13T06:45:00.708Z,63.30
2018-05-13T06:47:28.168Z,63.10
2018-05-13T06:49:55.636Z,62.90
2018-05-13T06:52:23.093Z,62.70
2018-05-13T06:54:50.564Z,62.60
2018-05-13T06:57:18.034Z,63.10
2018-05-13T06:59:45.488Z,62.30
2018-05-13T07:02:12.954Z,62.20
2018-05-13T07:04:40.408Z,62.00
2018-05-13T07:07:08.636Z,62.00
2018-05-13T07:09:36.094Z,61.30
2018-05-13T07:12:03.552Z,61.20
2018-05-13T07:14:31.008Z,61.00
2018-05-13T07:16:58.476Z,60.80
2018-05-13T07:19:25.960Z,60.70
2018-05-13T07:21:53.428Z,60.50
2018-05-13T07:24:20.961Z,60.50
2018-05-13T07:26:48.727Z,60.40
2018-05-13T07:29:16.587Z,60.30
2018-05-13T07:31:44.761Z,60.30
2018-05-13T07:34:12.324Z,60.30
2018-05-13T07:36:39.787Z,60.20
2018-05-13T07:39:07.462Z,60.00
2018-05-13T07:41:35.009Z,59.80
2018-05-13T07:44:02.664Z,59.50
2018-05-13T07:46:31.145Z,59.30
2018-05-13T07:48:58.616Z,59.30
2018-05-13T07:51:26.916Z,59.10
2018-05-13T07:53:54.433Z,59.10
2018-05-13T07:56:22.076Z,59.00
2018-05-13T07:58:49.657Z,58.90
2018-05-13T08:01:17.428Z,58.80
2018-05-13T08:03:45.072Z,58.60
2018-05-13T08:06:12.714Z,58.50
2018-05-13T08:08:40.300Z,58.40
2018-05-13T08:11:07.781Z,58.20
2018-05-13T08:13:35.321Z,58.20
2018-05-13T08:16:02.956Z,58.20
2018-05-13T08:18:30.535Z,58.70
2018-05-13T08:20:57.993Z,58.00
2018-05-13T08:23:25.764Z,57.90
2018-05-13T08:25:53.248Z,57.70
2018-05-13T08:28:20.720Z,57.50
2018-05-13T08:30:48.182Z,57.40
2018-05-13T08:33:15.638Z,57.40
2018-05-13T08:35:43.097Z,57.40
2018-05-13T08:38:10.555Z,57.30
2018-05-13T08:40:38.047Z,57.20
2018-05-13T08:43:05.496Z,57.20
2018-05-13T08:45:32.964Z,57.20
2018-05-13T08:48:00.443Z,57.30
2018-05-13T08:50:27.904Z,57.30
2018-05-13T08:52:55.364Z,57.20
2018-05-13T08:55:23.613Z,57.40
2018-05-13T08:57:51.060Z,57.40
2018-05-13T09:00:18.528Z,57.50
2018-05-13T09:02:45.992Z,57.50
2018-05-13T09:05:13.448Z,57.50
2018-05-13T09:07:40.937Z,57.70
2018-05-13T09:10:08.408Z,57.70
2018-05-13T09:12:35.885Z,57.70
2018-05-13T09:15:03.347Z,57.60
2018-05-13T09:17:30.813Z,57.50
2018-05-13T09:19:58.275Z,57.50
2018-05-13T09:22:25.742Z,57.50
2018-05-13T09:24:53.192Z,57.30
2018-05-13T09:27:20.723Z,57.10
2018-05-13T09:29:48.169Z,57.00
2018-05-13T09:32:15.781Z,57.00
2018-05-13T09:34:43.416Z,56.80
2018-05-13T09:37:10.884Z,56.70
2018-05-13T09:39:38.349Z,56.60
2018-05-13T09:42:05.812Z,56.50
2018-05-13T09:44:33.268Z,56.40
2018-05-13T09:47:00.734Z,56.40
2018-05-13T09:49:28.202Z,56.40
2018-05-13T09:51:55.667Z,56.50
2018-05-13T09:54:23.135Z,56.50
2018-05-13T09:56:50.585Z,56.20
2018-05-13T09:59:18.051Z,56.10
2018-05-13T10:01:45.520Z,55.90
2018-05-13T10:04:13.048Z,55.70
2018-05-13T10:06:40.454Z,55.60
2018-05-13T10:09:07.925Z,55.60
2018-05-13T10:11:35.415Z,55.80
2018-05-13T10:14:02.864Z,55.60
2018-05-13T10:16:30.328Z,55.80
2018-05-13T10:18:57.796Z,55.80
2018-05-13T10:21:25.253Z,55.80
2018-05-13T10:23:52.710Z,55.80
2018-05-13T10:26:20.168Z,55.90
2018-05-13T10:28:47.639Z,55.80
2018-05-13T10:31:15.109Z,55.60
2018-05-13T10:33:42.569Z,55.30
2018-05-13T10:36:10.061Z,55.20
2018-05-13T10:38:37.523Z,55.10
2018-05-13T10:41:05.100Z,54.90
2018-05-13T10:43:33.317Z,54.80
2018-05-13T10:46:00.790Z,54.80
2018-05-13T10:48:28.297Z,54.60
2018-05-13T10:50:56.533Z,54.40
2018-05-13T10:53:23.990Z,54.40
2018-05-13T10:55:51.476Z,54.30
2018-05-13T10:58:18.922Z,54.30
2018-05-13T11:00:46.398Z,54.40
2018-05-13T11:03:13.850Z,54.20
2018-05-13T11:05:41.605Z,54.20
2018-05-13T11:08:09.143Z,54.20
2018-05-13T11:10:36.596Z,53.90
2018-05-13T11:13:04.065Z,53.70
2018-05-13T11:15:31.577Z,53.50
2018-05-13T11:17:59.036Z,53.30
2018-05-13T11:20:26.487Z,53.10
2018-05-13T11:22:53.954Z,52.90
2018-05-13T11:25:21.419Z,52.90
2018-05-13T11:27:48.912Z,52.70
2018-05-13T11:30:16.384Z,52.50
2018-05-13T11:32:43.890Z,52.40
2018-05-13T11:35:11.336Z,52.30
2018-05-13T11:37:38.873Z,52.10
2018-05-13T11:40:06.253Z,51.80
2018-05-13T11:42:33.715Z,51.60
2018-05-13T11:45:01.168Z,51.40
2018-05-13T11:47:28.636Z,51.20
2018-05-13T11:49:56.115Z,51.20
2018-05-13T11:52:23.595Z,51.10
2018-05-13T11:54:51.059Z,51.20
2018-05-13T11:57:18.514Z,51.30
2018-05-13T11:59:45.968Z,51.30
2018-05-13T12:02:13.491Z,51.20
2018-05-13T12:04:40.921Z,50.90
2018-05-13T12:07:08.364Z,50.70
2018-05-13T12:09:35.844Z,50.70
2018-05-13T12:12:03.300Z,50.60
2018-05-13T12:14:30.772Z,50.30
2018-05-13T12:16:58.229Z,50.20
2018-05-13T12:19:25.705Z,50.20
2018-05-13T12:21:53.157Z,50.50
2018-05-13T12:24:20.631Z,50.70
2018-05-13T12:26:48.086Z,50.70
2018-05-13T12:29:15.656Z,50.60
2018-05-13T12:31:43.178Z,50.80
2018-05-13T12:34:10.644Z,51.00
2018-05-13T12:36:38.102Z,51.00
2018-05-13T12:39:05.570Z,51.00
2018-05-13T12:41:33.042Z,51.00
2018-05-13T12:44:00.501Z,51.00
2018-05-13T12:46:27.990Z,50.90
2018-05-13T12:48:55.429Z,50.90
2018-05-13T12:51:22.917Z,50.80
2018-05-13T12:53:50.373Z,50.90
2018-05-13T12:56:17.883Z,50.90
2018-05-13T12:58:45.323Z,50.70
2018-05-13T13:01:12.784Z,50.60
2018-05-13T13:03:40.311Z,50.80
2018-05-13T13:06:08.493Z,50.40
2018-05-13T13:08:35.978Z,50.40
2018-05-13T13:11:03.720Z,50.10
2018-05-13T13:13:31.177Z,49.90
2018-05-13T13:15:58.639Z,49.70
2018-05-13T13:18:26.117Z,49.50
2018-05-13T13:20:53.582Z,49.20
2018-05-13T13:23:21.059Z,49.10
2018-05-13T13:25:48.548Z,48.90
2018-05-13T13:28:15.977Z,48.60
2018-05-13T13:30:43.523Z,48.50
2018-05-13T13:33:10.907Z,48.60
2018-05-13T13:35:38.360Z,48.90
2018-05-13T13:38:05.839Z,48.60
2018-05-13T13:40:33.317Z,48.30
2018-05-13T13:43:00.783Z,48.20
2018-05-13T13:45:28.225Z,48.10
2018-05-13T13:47:55.692Z,48.10
2018-05-13T13:50:23.947Z,48.30
2018-05-13T13:52:51.391Z,47.90
2018-05-13T13:55:18.844Z,47.80
2018-05-13T13:57:46.329Z,47.80
2018-05-13T14:00:13.860Z,47.70
2018-05-13T14:02:41.262Z,47.80
2018-05-13T14:05:08.709Z,47.90
2018-05-13T14:07:36.166Z,48.00
2018-05-13T14:10:03.618Z,48.20
2018-05-13T14:12:31.092Z,48.40
2018-05-13T14:14:58.557Z,48.50
2018-05-13T14:17:26.208Z,48.90
2018-05-13T14:19:53.762Z,49.70
2018-05-13T14:22:21.421Z,50.60
2018-05-13T14:24:48.884Z,51.20
2018-05-13T14:27:16.355Z,51.90
2018-05-13T14:29:43.838Z,52.40
2018-05-13T14:32:11.339Z,53.10
2018-05-13T14:34:38.817Z,53.80
2018-05-13T14:37:06.556Z,54.40
2018-05-13T14:39:34.848Z,55.20
2018-05-13T14:42:02.324Z,55.20
2018-05-13T14:44:29.831Z,55.70
2018-05-13T14:46:57.341Z,56.10
2018-05-13T14:49:24.805Z,56.60
2018-05-13T14:51:52.261Z,57.30
2018-05-13T14:54:20.038Z,57.80
2018-05-13T14:56:47.701Z,58.80
2018-05-13T14:59:15.202Z,59.50
2018-05-13T15:01:42.977Z,60.00
2018-05-13T15:04:11.396Z,61.60
2018-05-13T15:06:39.122Z,61.50
2018-05-13T15:09:07.477Z,63.00
2018-05-13T15:11:34.962Z,62.90
2018-05-13T15:14:02.709Z,63.50
2018-05-13T15:16:30.570Z,64.10
2018-05-13T15:18:58.105Z,64.70
2018-05-13T15:21:25.579Z,65.50
2018-05-13T15:23:53.149Z,66.60
2018-05-13T15:26:20.915Z,67.30
2018-05-13T15:28:48.680Z,67.70
2018-05-13T15:31:16.324Z,68.40
2018-05-13T15:33:43.900Z,68.70
2018-05-13T15:36:11.673Z,69.70
2018-05-13T15:38:39.914Z,70.70
2018-05-13T15:41:07.385Z,70.70
2018-05-13T15:43:34.878Z,71.10
2018-05-13T15:46:02.349Z,71.50
2018-05-13T15:48:29.804Z,71.80
2018-05-13T15:50:57.317Z,72.00
2018-05-13T15:53:24.776Z,72.20
2018-05-13T15:55:52.557Z,72.40
2018-05-13T15:58:20.154Z,72.70
2018-05-13T16:00:47.629Z,72.90
2018-05-13T16:03:15.144Z,73.20
2018-05-13T16:05:42.675Z,74.30
2018-05-13T16:08:10.445Z,74.20
2018-05-13T16:10:37.989Z,74.60
2018-05-13T16:13:05.577Z,75.00
2018-05-13T16:15:33.043Z,75.40
2018-05-13T16:18:00.510Z,75.60
2018-05-13T16:20:28.033Z,75.80
2018-05-13T16:22:55.682Z,75.70
2018-05-13T16:25:23.258Z,75.60
2018-05-13T16:27:50.720Z,75.90
2018-05-13T16:30:19.008Z,76.30
2018-05-13T16:32:46.478Z,76.30
2018-05-13T16:35:13.997Z,76.50
2018-05-13T16:37:41.469Z,76.60
2018-05-13T16:40:08.924Z,76.90
2018-05-13T16:42:37.184Z,77.20
2018-05-13T16:45:04.648Z,77.20
2018-05-13T16:47:32.100Z,76.90
2018-05-13T16:50:00.530Z,77.00
2018-05-13T16:52:28.046Z,77.00
2018-05-13T16:54:55.809Z,77.00
2018-05-13T16:57:23.274Z,77.10
2018-05-13T16:59:50.741Z,77.00
2018-05-13T17:02:18.245Z,76.70
2018-05-13T17:04:45.841Z,77.00
2018-05-13T17:07:13.309Z,77.20
2018-05-13T17:09:40.863Z,77.20
2018-05-13T17:12:08.264Z,77.30
2018-05-13T17:14:35.730Z,77.30
2018-05-13T17:17:03.238Z,77.40
2018-05-13T17:19:31.484Z,77.70
2018-05-13T17:21:58.967Z,77.70
2018-05-13T17:24:26.445Z,77.70
2018-05-13T17:26:53.892Z,77.60
2018-05-13T17:29:21.356Z,77.40
2018-05-13T17:31:48.830Z,76.90
2018-05-13T17:34:16.403Z,77.00
2018-05-13T17:36:43.825Z,77.00
2018-05-13T17:39:11.308Z,77.20
2018-05-13T17:41:38.931Z,77.10
2018-05-13T17:44:06.396Z,77.00
2018-05-13T17:46:34.854Z,77.30
2018-05-13T17:49:02.805Z,77.30
2018-05-13T17:51:30.306Z,77.50
2018-05-13T17:53:57.773Z,77.60
2018-05-13T17:56:25.296Z,77.40
2018-05-13T17:58:53.065Z,77.50
2018-05-13T18:01:20.826Z,77.50
2018-05-13T18:03:48.411Z,77.30
2018-05-13T18:06:16.772Z,77.30
2018-05-13T18:08:44.424Z,77.30
2018-05-13T18:11:12.193Z,77.10
2018-05-13T18:13:39.834Z,77.20
2018-05-13T18:16:07.318Z,77.10
2018-05-13T18:18:35.688Z,77.00
2018-05-13T18:21:03.248Z,77.00
2018-05-13T18:23:30.708Z,76.80
2018-05-13T18:25:58.460Z,77.10
2018-05-13T18:28:25.934Z,77.30
2018-05-13T18:30:53.548Z,77.70
2018-05-13T18:33:21.056Z,77.70
2018-05-13T18:35:48.528Z,77.80
2018-05-13T18:38:16.003Z,77.90
2018-05-13T18:40:43.448Z,78.50
2018-05-13T18:43:10.913Z,77.70
2018-05-13T18:45:38.368Z,77.70
2018-05-13T18:48:05.839Z,77.90
2018-05-13T18:50:33.302Z,77.30
2018-05-13T18:53:00.773Z,77.50
2018-05-13T18:55:28.252Z,78.20
2018-05-13T18:57:55.716Z,78.40
2018-05-13T19:00:23.346Z,78.40
2018-05-13T19:02:50.818Z,78.50
2018-05-13T19:05:18.393Z,78.70
2018-05-13T19:07:45.851Z,78.90
2018-05-13T19:10:13.484Z,79.00
2018-05-13T19:12:40.996Z,79.10
2018-05-13T19:15:08.473Z,79.50
2018-05-13T19:17:35.935Z,78.70
2018-05-13T19:20:03.400Z,79.00
2018-05-13T19:22:31.196Z,78.70
2018-05-13T19:24:58.955Z,78.60
2018-05-13T19:27:26.666Z,78.70
2018-05-13T19:29:54.106Z,78.60
2018-05-13T19:32:21.567Z,78.90
2018-05-13T19:34:49.020Z,79.00
2018-05-13T19:37:16.484Z,78.80
2018-05-13T19:39:43.997Z,78.80
2018-05-13T19:42:11.448Z,78.90
2018-05-13T19:44:38.912Z,78.90
2018-05-13T19:47:06.382Z,78.90
2018-05-13T19:49:33.859Z,78.90
2018-05-13T19:52:01.323Z,79.30
2018-05-13T19:54:28.790Z,79.40
2018-05-13T19:56:56.512Z,79.70
2018-05-13T19:59:24.284Z,79.60
2018-05-13T20:01:51.761Z,79.60
2018-05-13T20:04:19.379Z,79.60
2018-05-13T20:06:46.876Z,79.60
2018-05-13T20:09:14.460Z,79.50
2018-05-13T20:11:41.874Z,79.60
2018-05-13T20:14:09.388Z,79.50
2018-05-13T20:16:37.001Z,79.40
2018-05-13T20:19:04.484Z,79.40
2018-05-13T20:21:32.000Z,79.30
2018-05-13T20:23:59.460Z,79.70
2018-05-13T20:26:26.928Z,79.90
2018-05-13T20:28:54.546Z,79.70
2018-05-13T20:31:22.124Z,79.70
2018-05-13T20:33:49.585Z,79.60
2018-05-13T20:36:17.049Z,79.60
2018-05-13T20:38:44.683Z,79.70
2018-05-13T20:41:12.229Z,79.60
2018-05-13T20:43:39.717Z,79.60
2018-05-13T20:46:07.181Z,79.50
2018-05-13T20:48:34.833Z,79.20
2018-05-13T20:51:02.288Z,79.10
2018-05-13T20:53:29.862Z,79.20
2018-05-13T20:55:57.314Z,79.10
2018-05-13T20:58:25.073Z,79.00
2018-05-13T21:00:52.540Z,79.00
2018-05-13T21:03:20.017Z,78.80
2018-05-13T21:05:47.464Z,78.70
2018-05-13T21:08:15.222Z,78.60
2018-05-13T21:10:42.657Z,78.70
2018-05-13T21:13:10.129Z,78.50
2018-05-13T21:15:37.576Z,78.70
2018-05-13T21:18:05.346Z,78.60
2018-05-13T21:20:32.805Z,78.30
2018-05-13T21:23:00.494Z,78.40
2018-05-13T21:25:27.936Z,78.60
2018-05-13T21:27:55.405Z,78.70
2018-05-13T21:30:22.861Z,78.50
2018-05-13T21:32:50.340Z,78.50
2018-05-13T21:35:17.796Z,78.20
2018-05-13T21:37:45.306Z,78.10
2018-05-13T21:40:12.769Z,78.20
2018-05-13T21:42:40.227Z,78.30
2018-05-13T21:45:07.692Z,78.30
2018-05-13T21:47:35.447Z,78.20
2018-05-13T21:50:03.205Z,78.20
2018-05-13T21:52:30.660Z,78.20
2018-05-13T21:54:58.130Z,78.10
2018-05-13T21:57:25.580Z,78.00
2018-05-13T21:59:53.054Z,77.90
2018-05-13T22:02:20.696Z,77.90
2018-05-13T22:05:02.080Z,77.80
2018-05-13T22:07:29.526Z,77.70
2018-05-13T22:09:57.104Z,77.40
2018-05-13T22:12:24.565Z,77.40
2018-05-13T22:14:52.218Z,78.10
2018-05-13T22:17:19.669Z,77.20
2018-05-13T22:19:48.049Z,77.00
2018-05-13T22:22:15.513Z,77.00
2018-05-13T22:24:43.269Z,77.00
2018-05-13T22:27:11.035Z,77.00
2018-05-13T22:29:38.679Z,77.20
2018-05-13T22:32:06.205Z,77.30
2018-05-13T22:34:33.678Z,77.50
2018-05-13T22:37:01.129Z,77.60
2018-05-13T22:39:28.630Z,77.70
2018-05-13T22:41:56.400Z,77.80
2018-05-13T22:44:24.170Z,78.10
2018-05-13T22:46:51.629Z,78.20
2018-05-13T22:49:19.198Z,78.00
2018-05-13T22:51:47.429Z,78.10
2018-05-13T22:54:15.094Z,78.00
2018-05-13T22:56:42.555Z,78.20
2018-05-13T22:59:10.116Z,78.30
2018-05-13T23:01:37.591Z,78.40
2018-05-13T23:04:05.344Z,78.20
2018-05-13T23:06:32.813Z,78.30
2018-05-13T23:09:00.465Z,78.20
2018-05-13T23:11:27.946Z,78.10
2018-05-13T23:13:55.484Z,77.90
2018-05-13T23:16:23.169Z,77.70
2018-05-13T23:18:50.697Z,77.60
2018-05-13T23:21:18.465Z,77.50
2018-05-13T23:23:45.924Z,77.20
2018-05-13T23:26:13.693Z,77.10
2018-05-13T23:28:41.453Z,77.20
2018-05-13T23:31:09.225Z,77.30
2018-05-13T23:33:36.872Z,77.30
2018-05-13T23:36:04.338Z,77.20
2018-05-13T23:38:31.813Z,76.90
2018-05-13T23:40:59.272Z,77.00
2018-05-13T23:43:26.815Z,77.00
2018-05-13T23:45:54.193Z,77.00
2018-05-13T23:48:21.656Z,77.00
2018-05-13T23:50:49.112Z,77.00
2018-05-13T23:53:16.639Z,77.20
2018-05-13T23:55:44.260Z,77.10
2018-05-13T23:58:11.769Z,77.00
